首页
METAR-TAF:

METAR-TAF

机场 :

鲍里斯波尔国际机场

鮑里斯皮爾, 乌克兰

纬度: 50-20N, 经度: 030-58E, 海拔: 121米

当前天气观测

该预报发布于10分钟前的00:00 UTC
风速12节,风向北转东北
温度 20°C
湿度 78%
气压 1023 hPa
能见度10公里或以上
1500米以下无云,无积雨云

METAR: UKBB 250000Z 02006MPS CAVOK 20/16 Q1023 R88/CLRD// NOSIG

时间: 03:10 (00:10 UTC)

预报

该预报发布于1小时和5分钟前的23:05 UTC
预报有效从25日的 00点(UTC)到 25日的 24点(UTC)
风速10节,风向北转东北,有时为19节阵风
能见度10公里或以上
散云层高于3000英尺
成为
从 25日的 06点(UTC)到 25日的 08点(UTC)
风速12节,风向东北,有时为23节阵风
短暂存在
从 25日的 08点(UTC)到 25日的 18点(UTC)
散云层高于2000英尺, 积雨云.

TAF: UKBB 242305Z 2500/2524 02005G10MPS 9999 SCT030 TX29/2513Z TN16/2502Z BECMG 2506/2508 04006G12MPS TEMPO 2508/2518 SCT020CB

超过4000个机场的气象观测和天气预报(METAR&TAF报告)。

可查询的气象台以黄色和红色小点在地图上表示。

将鼠标移到小点上方,可查看气象台名称。

然后点击查看天气观测和预报。

如需切换地图:点击带黑十字的绿色按钮放大地图;点击带横线的绿色按钮缩小地图;或者点击绿色箭头查看邻近地区的地图。


METAR-TAF: